sensor_id;sensor_type;location;lat;lon;timestamp;temperature;humidity
5334;DHT22;2689;50.954;7.116;2022-08-02T07:23:33;22.30;98.20
5334;DHT22;2689;50.954;7.116;2022-08-02T07:26:00;22.40;97.10
5334;DHT22;2689;50.954;7.116;2022-08-02T07:28:27;22.50;96.90
5334;DHT22;2689;50.954;7.116;2022-08-02T07:30:54;22.70;96.60
5334;DHT22;2689;50.954;7.116;2022-08-02T07:33:21;22.80;96.20
5334;DHT22;2689;50.954;7.116;2022-08-02T07:35:48;23.10;95.30
5334;DHT22;2689;50.954;7.116;2022-08-02T07:38:16;23.20;94.40
5334;DHT22;2689;50.954;7.116;2022-08-02T07:40:44;23.40;94.30
5334;DHT22;2689;50.954;7.116;2022-08-02T07:43:11;23.50;93.40
5334;DHT22;2689;50.954;7.116;2022-08-02T07:45:37;23.70;92.20
5334;DHT22;2689;50.954;7.116;2022-08-02T07:48:05;23.80;91.70
5334;DHT22;2689;50.954;7.116;2022-08-02T07:50:33;23.90;91.40
5334;DHT22;2689;50.954;7.116;2022-08-02T07:52:59;24.00;90.70
5334;DHT22;2689;50.954;7.116;2022-08-02T07:55:26;24.10;90.70
5334;DHT22;2689;50.954;7.116;2022-08-02T07:57:54;24.40;91.30
5334;DHT22;2689;50.954;7.116;2022-08-02T08:00:21;24.60;89.80
5334;DHT22;2689;50.954;7.116;2022-08-02T08:02:49;24.80;89.20
5334;DHT22;2689;50.954;7.116;2022-08-02T08:12:00;25.60;83.30
5334;DHT22;2689;50.954;7.116;2022-08-02T08:14:28;25.70;83.50
5334;DHT22;2689;50.954;7.116;2022-08-02T08:16:55;26.00;83.40
5334;DHT22;2689;50.954;7.116;2022-08-02T08:19:22;26.40;80.80
5334;DHT22;2689;50.954;7.116;2022-08-02T08:21:48;26.70;79.80
5334;DHT22;2689;50.954;7.116;2022-08-02T08:24:15;27.30;77.80
5334;DHT22;2689;50.954;7.116;2022-08-02T08:26:42;27.90;73.70
5334;DHT22;2689;50.954;7.116;2022-08-02T08:29:09;28.40;73.50
5334;DHT22;2689;50.954;7.116;2022-08-02T08:31:38;28.80;68.80
5334;DHT22;2689;50.954;7.116;2022-08-02T08:34:04;29.10;67.00
5334;DHT22;2689;50.954;7.116;2022-08-02T08:36:31;29.70;65.80
5334;DHT22;2689;50.954;7.116;2022-08-02T08:38:58;30.20;62.00
5334;DHT22;2689;50.954;7.116;2022-08-02T08:41:25;30.70;59.70
5334;DHT22;2689;50.954;7.116;2022-08-02T08:43:52;31.70;57.90
5334;DHT22;2689;50.954;7.116;2022-08-02T08:46:25;32.80;55.60
5334;DHT22;2689;50.954;7.116;2022-08-02T08:48:58;33.80;52.00
5334;DHT22;2689;50.954;7.116;2022-08-02T08:51:30;34.50;49.00
5334;DHT22;2689;50.954;7.116;2022-08-02T08:54:01;34.70;47.00
5334;DHT22;2689;50.954;7.116;2022-08-02T08:56:32;34.50;46.40
5334;DHT22;2689;50.954;7.116;2022-08-02T08:59:00;34.20;47.10
5334;DHT22;2689;50.954;7.116;2022-08-02T09:01:28;34.40;47.10
5334;DHT22;2689;50.954;7.116;2022-08-02T09:03:56;34.50;46.70
5334;DHT22;2689;50.954;7.116;2022-08-02T09:06:24;34.30;45.80
5334;DHT22;2689;50.954;7.116;2022-08-02T09:08:50;34.40;47.00
5334;DHT22;2689;50.954;7.116;2022-08-02T09:11:21;34.50;45.60
5334;DHT22;2689;50.954;7.116;2022-08-02T09:13:51;34.80;45.80
5334;DHT22;2689;50.954;7.116;2022-08-02T09:16:32;35.30;45.30
5334;DHT22;2689;50.954;7.116;2022-08-02T09:19:15;35.90;44.60
5334;DHT22;2689;50.954;7.116;2022-08-02T09:21:43;36.10;43.00
5334;DHT22;2689;50.954;7.116;2022-08-02T09:24:17;36.20;43.20
5334;DHT22;2689;50.954;7.116;2022-08-02T09:26:45;36.50;41.40
5334;DHT22;2689;50.954;7.116;2022-08-02T09:29:12;36.70;40.60
5334;DHT22;2689;50.954;7.116;2022-08-02T09:31:39;36.80;41.00
5334;DHT22;2689;50.954;7.116;2022-08-02T09:34:08;37.40;40.50
5334;DHT22;2689;50.954;7.116;2022-08-02T09:36:39;37.50;39.50
5334;DHT22;2689;50.954;7.116;2022-08-02T09:39:08;37.90;38.60
5334;DHT22;2689;50.954;7.116;2022-08-02T09:41:36;38.60;37.80
5334;DHT22;2689;50.954;7.116;2022-08-02T09:44:05;39.20;36.90
5334;DHT22;2689;50.954;7.116;2022-08-02T09:46:35;38.10;36.60
5334;DHT22;2689;50.954;7.116;2022-08-02T09:49:04;37.70;37.90
5334;DHT22;2689;50.954;7.116;2022-08-02T09:51:34;38.00;37.60
5334;DHT22;2689;50.954;7.116;2022-08-02T09:54:05;38.60;37.40
5334;DHT22;2689;50.954;7.116;2022-08-02T09:56:43;38.70;36.30
5334;DHT22;2689;50.954;7.116;2022-08-02T09:59:11;38.00;36.80
5334;DHT22;2689;50.954;7.116;2022-08-02T10:01:39;37.10;39.30
5334;DHT22;2689;50.954;7.116;2022-08-02T10:04:07;36.40;39.80
5334;DHT22;2689;50.954;7.116;2022-08-02T10:06:51;35.00;41.30
5334;DHT22;2689;50.954;7.116;2022-08-02T10:09:20;33.40;44.60
5334;DHT22;2689;50.954;7.116;2022-08-02T10:11:48;33.00;46.50
5334;DHT22;2689;50.954;7.116;2022-08-02T10:14:15;33.20;45.40
5334;DHT22;2689;50.954;7.116;2022-08-02T10:16:43;35.00;45.00
5334;DHT22;2689;50.954;7.116;2022-08-02T10:19:10;36.60;41.50
5334;DHT22;2689;50.954;7.116;2022-08-02T10:21:43;37.20;39.00
5334;DHT22;2689;50.954;7.116;2022-08-02T10:24:12;37.80;38.00
5334;DHT22;2689;50.954;7.116;2022-08-02T10:26:45;38.10;37.10
5334;DHT22;2689;50.954;7.116;2022-08-02T10:29:15;38.50;36.80
5334;DHT22;2689;50.954;7.116;2022-08-02T10:31:46;39.30;35.70
5334;DHT22;2689;50.954;7.116;2022-08-02T10:34:19;39.80;35.40
5334;DHT22;2689;50.954;7.116;2022-08-02T10:36:47;40.30;35.10
5334;DHT22;2689;50.954;7.116;2022-08-02T10:39:16;38.80;33.50
5334;DHT22;2689;50.954;7.116;2022-08-02T10:41:45;37.60;35.70
5334;DHT22;2689;50.954;7.116;2022-08-02T10:44:20;37.10;37.20
5334;DHT22;2689;50.954;7.116;2022-08-02T10:46:48;36.30;37.30
5334;DHT22;2689;50.954;7.116;2022-08-02T10:49:16;36.20;37.90
5334;DHT22;2689;50.954;7.116;2022-08-02T10:54:43;36.60;38.20
5334;DHT22;2689;50.954;7.116;2022-08-02T10:57:19;37.50;35.90
5334;DHT22;2689;50.954;7.116;2022-08-02T10:59:47;37.10;36.20
5334;DHT22;2689;50.954;7.116;2022-08-02T11:02:36;36.90;37.80
5334;DHT22;2689;50.954;7.116;2022-08-02T11:05:09;37.00;34.60
5334;DHT22;2689;50.954;7.116;2022-08-02T11:07:38;36.90;35.30
5334;DHT22;2689;50.954;7.116;2022-08-02T11:10:34;37.70;34.70
5334;DHT22;2689;50.954;7.116;2022-08-02T11:13:04;37.50;32.00
5334;DHT22;2689;50.954;7.116;2022-08-02T11:15:48;36.40;34.60
5334;DHT22;2689;50.954;7.116;2022-08-02T11:18:15;36.20;34.30
5334;DHT22;2689;50.954;7.116;2022-08-02T11:20:42;36.60;34.90
5334;DHT22;2689;50.954;7.116;2022-08-02T11:23:34;37.30;33.90
5334;DHT22;2689;50.954;7.116;2022-08-02T11:26:41;37.80;34.20
5334;DHT22;2689;50.954;7.116;2022-08-02T11:29:10;37.60;32.40
5334;DHT22;2689;50.954;7.116;2022-08-02T11:31:38;37.50;32.90
5334;DHT22;2689;50.954;7.116;2022-08-02T11:34:05;37.70;32.00
5334;DHT22;2689;50.954;7.116;2022-08-02T11:36:32;36.70;35.00
5334;DHT22;2689;50.954;7.116;2022-08-02T11:39:09;36.70;34.70
5334;DHT22;2689;50.954;7.116;2022-08-02T11:41:38;36.60;33.80
5334;DHT22;2689;50.954;7.116;2022-08-02T11:44:05;37.00;33.00
5334;DHT22;2689;50.954;7.116;2022-08-02T11:46:32;36.40;33.50
5334;DHT22;2689;50.954;7.116;2022-08-02T11:49:14;35.70;33.90
5334;DHT22;2689;50.954;7.116;2022-08-02T11:51:55;35.40;34.80
5334;DHT22;2689;50.954;7.116;2022-08-02T11:54:26;34.80;34.90
5334;DHT22;2689;50.954;7.116;2022-08-02T11:57:07;34.30;37.20
5334;DHT22;2689;50.954;7.116;2022-08-02T11:59:36;34.20;37.40
5334;DHT22;2689;50.954;7.116;2022-08-02T12:02:03;34.50;37.00
5334;DHT22;2689;50.954;7.116;2022-08-02T12:04:30;35.00;36.70
5334;DHT22;2689;50.954;7.116;2022-08-02T12:06:59;35.80;35.80
5334;DHT22;2689;50.954;7.116;2022-08-02T12:09:27;35.90;34.60
5334;DHT22;2689;50.954;7.116;2022-08-02T12:11:56;36.00;34.60
5334;DHT22;2689;50.954;7.116;2022-08-02T12:14:25;35.20;36.20
5334;DHT22;2689;50.954;7.116;2022-08-02T12:16:53;35.20;36.40
5334;DHT22;2689;50.954;7.116;2022-08-02T12:19:39;34.90;36.50
5334;DHT22;2689;50.954;7.116;2022-08-02T12:22:09;34.90;37.00
5334;DHT22;2689;50.954;7.116;2022-08-02T12:24:37;34.90;36.50
5334;DHT22;2689;50.954;7.116;2022-08-02T12:27:06;34.80;36.90
5334;DHT22;2689;50.954;7.116;2022-08-02T12:29:35;34.40;37.40
5334;DHT22;2689;50.954;7.116;2022-08-02T12:32:03;34.20;37.60
5334;DHT22;2689;50.954;7.116;2022-08-02T12:34:31;33.00;38.50
5334;DHT22;2689;50.954;7.116;2022-08-02T12:37:04;32.90;40.20
5334;DHT22;2689;50.954;7.116;2022-08-02T12:39:39;32.70;40.00
5334;DHT22;2689;50.954;7.116;2022-08-02T12:42:09;33.00;40.20
5334;DHT22;2689;50.954;7.116;2022-08-02T12:44:37;32.70;40.40
5334;DHT22;2689;50.954;7.116;2022-08-02T12:47:06;32.70;41.20
5334;DHT22;2689;50.954;7.116;2022-08-02T12:49:34;32.70;41.40
5334;DHT22;2689;50.954;7.116;2022-08-02T12:52:01;32.20;41.80
5334;DHT22;2689;50.954;7.116;2022-08-02T12:54:34;31.90;42.90
5334;DHT22;2689;50.954;7.116;2022-08-02T12:57:13;31.60;43.80
5334;DHT22;2689;50.954;7.116;2022-08-02T12:59:41;31.40;44.10
5334;DHT22;2689;50.954;7.116;2022-08-02T13:02:10;31.10;44.50
5334;DHT22;2689;50.954;7.116;2022-08-02T13:04:38;31.00;44.90
5334;DHT22;2689;50.954;7.116;2022-08-02T13:07:05;31.30;44.40
5334;DHT22;2689;50.954;7.116;2022-08-02T13:09:35;31.60;44.10
5334;DHT22;2689;50.954;7.116;2022-08-02T13:12:03;31.70;44.90
5334;DHT22;2689;50.954;7.116;2022-08-02T13:14:31;31.70;43.80
5334;DHT22;2689;50.954;7.116;2022-08-02T13:16:59;31.90;44.30
5334;DHT22;2689;50.954;7.116;2022-08-02T13:19:26;32.00;43.90
5334;DHT22;2689;50.954;7.116;2022-08-02T13:21:53;32.20;44.10
5334;DHT22;2689;50.954;7.116;2022-08-02T13:24:20;32.20;43.70
5334;DHT22;2689;50.954;7.116;2022-08-02T13:26:47;32.20;44.60
5334;DHT22;2689;50.954;7.116;2022-08-02T13:29:14;32.40;43.70
5334;DHT22;2689;50.954;7.116;2022-08-02T13:31:42;32.60;43.40
5334;DHT22;2689;50.954;7.116;2022-08-02T13:34:10;33.00;44.30
5334;DHT22;2689;50.954;7.116;2022-08-02T13:36:37;33.60;41.90
5334;DHT22;2689;50.954;7.116;2022-08-02T13:39:06;34.00;40.70
5334;DHT22;2689;50.954;7.116;2022-08-02T13:41:36;34.20;40.80
5334;DHT22;2689;50.954;7.116;2022-08-02T13:44:04;34.50;39.60
5334;DHT22;2689;50.954;7.116;2022-08-02T13:46:31;34.40;38.60
5334;DHT22;2689;50.954;7.116;2022-08-02T13:49:01;33.70;39.20
5334;DHT22;2689;50.954;7.116;2022-08-02T13:51:28;33.30;40.80
5334;DHT22;2689;50.954;7.116;2022-08-02T13:53:55;33.60;41.10
5334;DHT22;2689;50.954;7.116;2022-08-02T13:56:22;33.60;40.30
5334;DHT22;2689;50.954;7.116;2022-08-02T13:58:49;33.50;41.20
5334;DHT22;2689;50.954;7.116;2022-08-02T14:01:16;33.60;40.50
5334;DHT22;2689;50.954;7.116;2022-08-02T14:03:44;33.60;40.00
5334;DHT22;2689;50.954;7.116;2022-08-02T14:06:17;33.20;40.40
5334;DHT22;2689;50.954;7.116;2022-08-02T14:08:45;33.10;41.10
5334;DHT22;2689;50.954;7.116;2022-08-02T14:11:12;32.80;41.60
5334;DHT22;2689;50.954;7.116;2022-08-02T14:13:39;33.00;41.90
5334;DHT22;2689;50.954;7.116;2022-08-02T14:16:06;33.20;41.30
5334;DHT22;2689;50.954;7.116;2022-08-02T14:18:33;33.00;41.70
5334;DHT22;2689;50.954;7.116;2022-08-02T14:21:00;33.20;41.50
5334;DHT22;2689;50.954;7.116;2022-08-02T14:23:28;33.00;41.30
5334;DHT22;2689;50.954;7.116;2022-08-02T14:25:57;32.80;40.90
5334;DHT22;2689;50.954;7.116;2022-08-02T14:28:24;32.70;41.80
5334;DHT22;2689;50.954;7.116;2022-08-02T14:30:51;32.70;41.70
5334;DHT22;2689;50.954;7.116;2022-08-02T14:33:18;32.50;41.20
5334;DHT22;2689;50.954;7.116;2022-08-02T14:35:45;32.50;41.70
5334;DHT22;2689;50.954;7.116;2022-08-02T14:38:12;32.40;41.50
5334;DHT22;2689;50.954;7.116;2022-08-02T14:40:40;32.40;42.80
5334;DHT22;2689;50.954;7.116;2022-08-02T14:43:07;32.50;42.80
5334;DHT22;2689;50.954;7.116;2022-08-02T14:45:34;32.50;41.90
5334;DHT22;2689;50.954;7.116;2022-08-02T14:48:01;32.40;42.10
5334;DHT22;2689;50.954;7.116;2022-08-02T14:50:28;32.30;41.80
5334;DHT22;2689;50.954;7.116;2022-08-02T14:52:55;32.00;42.30
5334;DHT22;2689;50.954;7.116;2022-08-02T14:55:22;31.90;43.00
5334;DHT22;2689;50.954;7.116;2022-08-02T14:57:50;31.70;43.10
5334;DHT22;2689;50.954;7.116;2022-08-02T15:00:17;31.90;42.70
5334;DHT22;2689;50.954;7.116;2022-08-02T15:02:43;31.90;42.40
5334;DHT22;2689;50.954;7.116;2022-08-02T15:05:10;31.90;42.60
5334;DHT22;2689;50.954;7.116;2022-08-02T15:07:37;31.90;43.10
5334;DHT22;2689;50.954;7.116;2022-08-02T15:10:04;31.80;42.60
5334;DHT22;2689;50.954;7.116;2022-08-02T15:12:31;31.90;43.40
5334;DHT22;2689;50.954;7.116;2022-08-02T15:14:59;31.90;42.70
5334;DHT22;2689;50.954;7.116;2022-08-02T15:17:26;31.60;43.30
5334;DHT22;2689;50.954;7.116;2022-08-02T15:19:52;31.50;43.30
5334;DHT22;2689;50.954;7.116;2022-08-02T15:22:19;31.50;43.60
5334;DHT22;2689;50.954;7.116;2022-08-02T15:24:47;31.50;44.00
5334;DHT22;2689;50.954;7.116;2022-08-02T15:27:14;31.60;44.10
5334;DHT22;2689;50.954;7.116;2022-08-02T15:29:43;31.60;43.50
5334;DHT22;2689;50.954;7.116;2022-08-02T15:32:11;31.60;43.70
5334;DHT22;2689;50.954;7.116;2022-08-02T15:34:39;31.60;43.70
5334;DHT22;2689;50.954;7.116;2022-08-02T15:37:06;31.60;43.70
5334;DHT22;2689;50.954;7.116;2022-08-02T15:39:34;31.60;43.30
5334;DHT22;2689;50.954;7.116;2022-08-02T15:42:01;31.60;43.60
5334;DHT22;2689;50.954;7.116;2022-08-02T15:44:33;31.60;43.60
5334;DHT22;2689;50.954;7.116;2022-08-02T15:47:00;31.70;43.30
5334;DHT22;2689;50.954;7.116;2022-08-02T15:49:29;31.90;44.20
5334;DHT22;2689;50.954;7.116;2022-08-02T15:51:59;31.80;43.40
5334;DHT22;2689;50.954;7.116;2022-08-02T15:54:28;31.60;43.70
5334;DHT22;2689;50.954;7.116;2022-08-02T15:56:55;31.70;43.80
5334;DHT22;2689;50.954;7.116;2022-08-02T15:59:22;31.60;43.80
5334;DHT22;2689;50.954;7.116;2022-08-02T16:01:49;31.60;44.10
5334;DHT22;2689;50.954;7.116;2022-08-02T16:04:16;31.70;43.70
5334;DHT22;2689;50.954;7.116;2022-08-02T16:06:44;31.80;44.30
5334;DHT22;2689;50.954;7.116;2022-08-02T16:09:11;31.90;43.70
5334;DHT22;2689;50.954;7.116;2022-08-02T16:11:38;32.00;43.40
5334;DHT22;2689;50.954;7.116;2022-08-02T16:14:05;31.80;43.20
5334;DHT22;2689;50.954;7.116;2022-08-02T16:16:33;31.80;43.50
5334;DHT22;2689;50.954;7.116;2022-08-02T16:19:01;31.70;43.30
5334;DHT22;2689;50.954;7.116;2022-08-02T16:21:28;31.70;43.70
5334;DHT22;2689;50.954;7.116;2022-08-02T16:23:56;31.70;43.70
5334;DHT22;2689;50.954;7.116;2022-08-02T16:26:24;31.50;43.90
5334;DHT22;2689;50.954;7.116;2022-08-02T16:28:53;31.40;44.00
5334;DHT22;2689;50.954;7.116;2022-08-02T16:31:20;31.20;44.10
5334;DHT22;2689;50.954;7.116;2022-08-02T16:33:48;31.20;44.30
5334;DHT22;2689;50.954;7.116;2022-08-02T16:36:15;31.20;44.70
5334;DHT22;2689;50.954;7.116;2022-08-02T16:38:42;31.10;44.50
5334;DHT22;2689;50.954;7.116;2022-08-02T16:41:16;31.10;44.90
5334;DHT22;2689;50.954;7.116;2022-08-02T16:43:58;31.10;44.90
5334;DHT22;2689;50.954;7.116;2022-08-02T16:46:29;31.10;45.00
5334;DHT22;2689;50.954;7.116;2022-08-02T16:48:56;31.00;45.60
5334;DHT22;2689;50.954;7.116;2022-08-02T16:51:26;30.90;45.40
5334;DHT22;2689;50.954;7.116;2022-08-02T16:53:58;30.80;45.60
5334;DHT22;2689;50.954;7.116;2022-08-02T16:56:55;30.70;45.60
5334;DHT22;2689;50.954;7.116;2022-08-02T16:59:22;30.70;45.70
5334;DHT22;2689;50.954;7.116;2022-08-02T17:01:52;30.80;45.80
5334;DHT22;2689;50.954;7.116;2022-08-02T17:04:22;30.70;45.90
5334;DHT22;2689;50.954;7.116;2022-08-02T17:06:49;30.70;46.10
5334;DHT22;2689;50.954;7.116;2022-08-02T17:09:17;30.60;46.60
5334;DHT22;2689;50.954;7.116;2022-08-02T17:11:44;30.60;46.50
5334;DHT22;2689;50.954;7.116;2022-08-02T17:14:12;30.50;46.70
5334;DHT22;2689;50.954;7.116;2022-08-02T17:16:39;30.60;46.70
5334;DHT22;2689;50.954;7.116;2022-08-02T17:19:07;30.50;46.70
5334;DHT22;2689;50.954;7.116;2022-08-02T17:21:34;30.60;46.80
5334;DHT22;2689;50.954;7.116;2022-08-02T17:24:01;30.60;46.70
5334;DHT22;2689;50.954;7.116;2022-08-02T17:26:28;30.50;47.30
5334;DHT22;2689;50.954;7.116;2022-08-02T17:28:56;30.50;47.60
5334;DHT22;2689;50.954;7.116;2022-08-02T17:31:24;30.40;47.30
5334;DHT22;2689;50.954;7.116;2022-08-02T17:33:52;30.40;48.00
5334;DHT22;2689;50.954;7.116;2022-08-02T17:36:19;30.40;47.90
5334;DHT22;2689;50.954;7.116;2022-08-02T17:38:46;30.40;47.60
5334;DHT22;2689;50.954;7.116;2022-08-02T17:41:13;30.30;47.80
5334;DHT22;2689;50.954;7.116;2022-08-02T17:43:40;30.30;48.40
5334;DHT22;2689;50.954;7.116;2022-08-02T17:46:07;30.30;48.00
5334;DHT22;2689;50.954;7.116;2022-08-02T17:48:36;30.20;48.20
5334;DHT22;2689;50.954;7.116;2022-08-02T17:51:17;30.20;49.10
5334;DHT22;2689;50.954;7.116;2022-08-02T17:53:44;30.10;48.40
5334;DHT22;2689;50.954;7.116;2022-08-02T17:56:11;29.90;48.40
5334;DHT22;2689;50.954;7.116;2022-08-02T17:58:38;29.80;48.40
5334;DHT22;2689;50.954;7.116;2022-08-02T18:01:07;29.80;48.80
5334;DHT22;2689;50.954;7.116;2022-08-02T18:03:36;29.80;48.90
5334;DHT22;2689;50.954;7.116;2022-08-02T18:06:04;29.80;48.80
5334;DHT22;2689;50.954;7.116;2022-08-02T18:08:30;29.70;48.90
5334;DHT22;2689;50.954;7.116;2022-08-02T18:10:57;29.60;49.20
5334;DHT22;2689;50.954;7.116;2022-08-02T18:13:27;29.60;49.30
5334;DHT22;2689;50.954;7.116;2022-08-02T18:15:54;29.50;49.50
5334;DHT22;2689;50.954;7.116;2022-08-02T18:18:21;29.30;49.80
5334;DHT22;2689;50.954;7.116;2022-08-02T18:20:51;29.30;50.00
5334;DHT22;2689;50.954;7.116;2022-08-02T18:23:20;29.30;50.00
5334;DHT22;2689;50.954;7.116;2022-08-02T18:25:47;29.20;50.20
5334;DHT22;2689;50.954;7.116;2022-08-02T18:28:14;29.10;50.40
5334;DHT22;2689;50.954;7.116;2022-08-02T18:30:41;29.00;50.60
5334;DHT22;2689;50.954;7.116;2022-08-02T18:33:08;29.00;50.90
5334;DHT22;2689;50.954;7.116;2022-08-02T18:35:34;29.00;51.30
5334;DHT22;2689;50.954;7.116;2022-08-02T18:38:03;28.90;51.10
5334;DHT22;2689;50.954;7.116;2022-08-02T18:40:30;28.90;51.60
5334;DHT22;2689;50.954;7.116;2022-08-02T18:42:56;28.80;51.80
5334;DHT22;2689;50.954;7.116;2022-08-02T18:45:23;28.80;52.30
5334;DHT22;2689;50.954;7.116;2022-08-02T18:47:50;28.70;52.50
5334;DHT22;2689;50.954;7.116;2022-08-02T18:50:17;28.60;52.90
5334;DHT22;2689;50.954;7.116;2022-08-02T18:52:44;28.50;53.90
5334;DHT22;2689;50.954;7.116;2022-08-02T18:55:13;28.30;53.90
5334;DHT22;2689;50.954;7.116;2022-08-02T18:57:40;28.20;54.60
5334;DHT22;2689;50.954;7.116;2022-08-02T19:00:08;28.10;55.00
5334;DHT22;2689;50.954;7.116;2022-08-02T19:02:36;27.90;55.90
5334;DHT22;2689;50.954;7.116;2022-08-02T19:05:04;27.80;56.60
5334;DHT22;2689;50.954;7.116;2022-08-02T19:07:30;27.70;56.90
5334;DHT22;2689;50.954;7.116;2022-08-02T19:09:57;27.50;57.00
5334;DHT22;2689;50.954;7.116;2022-08-02T19:12:25;27.40;57.80
5334;DHT22;2689;50.954;7.116;2022-08-02T19:14:53;27.20;58.10
5334;DHT22;2689;50.954;7.116;2022-08-02T19:17:20;27.10;58.20
5334;DHT22;2689;50.954;7.116;2022-08-02T19:19:47;27.00;57.80
5334;DHT22;2689;50.954;7.116;2022-08-02T19:22:13;27.00;57.80
5334;DHT22;2689;50.954;7.116;2022-08-02T19:24:40;26.90;58.30
5334;DHT22;2689;50.954;7.116;2022-08-02T19:27:07;26.90;58.70
5334;DHT22;2689;50.954;7.116;2022-08-02T19:29:35;26.80;59.10
5334;DHT22;2689;50.954;7.116;2022-08-02T19:32:04;26.70;59.30
5334;DHT22;2689;50.954;7.116;2022-08-02T19:34:30;26.60;59.50
5334;DHT22;2689;50.954;7.116;2022-08-02T19:36:58;26.40;60.00
5334;DHT22;2689;50.954;7.116;2022-08-02T19:39:24;26.30;60.60
5334;DHT22;2689;50.954;7.116;2022-08-02T19:41:51;26.30;61.30
5334;DHT22;2689;50.954;7.116;2022-08-02T19:44:18;26.20;61.40
5334;DHT22;2689;50.954;7.116;2022-08-02T19:46:46;26.10;62.30
5334;DHT22;2689;50.954;7.116;2022-08-02T19:49:13;26.00;62.90
5334;DHT22;2689;50.954;7.116;2022-08-02T19:51:39;25.80;63.50
5334;DHT22;2689;50.954;7.116;2022-08-02T19:54:06;25.80;64.30
5334;DHT22;2689;50.954;7.116;2022-08-02T19:56:33;25.70;65.20
5334;DHT22;2689;50.954;7.116;2022-08-02T19:59:00;25.60;66.20
5334;DHT22;2689;50.954;7.116;2022-08-02T20:01:27;25.50;67.50
5334;DHT22;2689;50.954;7.116;2022-08-02T20:03:55;25.40;69.10
5334;DHT22;2689;50.954;7.116;2022-08-02T20:06:22;25.40;69.70
5334;DHT22;2689;50.954;7.116;2022-08-02T20:08:49;25.20;70.50
5334;DHT22;2689;50.954;7.116;2022-08-02T20:11:16;25.20;72.70
5334;DHT22;2689;50.954;7.116;2022-08-02T20:13:42;25.10;74.50
5334;DHT22;2689;50.954;7.116;2022-08-02T20:16:09;25.00;75.30
5334;DHT22;2689;50.954;7.116;2022-08-02T20:18:36;24.90;75.50
5334;DHT22;2689;50.954;7.116;2022-08-02T20:21:04;24.70;75.50
5334;DHT22;2689;50.954;7.116;2022-08-02T20:23:30;24.60;74.50
5334;DHT22;2689;50.954;7.116;2022-08-02T20:25:58;24.50;76.50
5334;DHT22;2689;50.954;7.116;2022-08-02T20:28:24;24.50;77.70
5334;DHT22;2689;50.954;7.116;2022-08-02T20:30:51;24.40;77.60
5334;DHT22;2689;50.954;7.116;2022-08-02T20:33:18;24.30;78.10
5334;DHT22;2689;50.954;7.116;2022-08-02T20:35:45;24.20;79.70
5334;DHT22;2689;50.954;7.116;2022-08-02T20:38:13;24.10;78.90
5334;DHT22;2689;50.954;7.116;2022-08-02T20:40:40;24.00;80.30
5334;DHT22;2689;50.954;7.116;2022-08-02T20:43:07;24.00;80.70
5334;DHT22;2689;50.954;7.116;2022-08-02T20:45:34;23.90;81.20
5334;DHT22;2689;50.954;7.116;2022-08-02T20:48:01;23.80;82.30
5334;DHT22;2689;50.954;7.116;2022-08-02T20:50:28;23.70;83.20
5334;DHT22;2689;50.954;7.116;2022-08-02T20:53:14;23.70;84.90
5334;DHT22;2689;50.954;7.116;2022-08-02T20:55:43;23.60;85.70
5334;DHT22;2689;50.954;7.116;2022-08-02T20:58:11;23.50;86.60
5334;DHT22;2689;50.954;7.116;2022-08-02T21:00:38;23.50;87.70
5334;DHT22;2689;50.954;7.116;2022-08-02T21:03:06;23.40;88.30
5334;DHT22;2689;50.954;7.116;2022-08-02T21:05:33;23.30;89.60
5334;DHT22;2689;50.954;7.116;2022-08-02T21:08:00;23.30;90.20
5334;DHT22;2689;50.954;7.116;2022-08-02T21:10:30;23.20;90.50
5334;DHT22;2689;50.954;7.116;2022-08-02T21:12:58;23.20;91.20
5334;DHT22;2689;50.954;7.116;2022-08-02T21:15:25;23.10;91.70
5334;DHT22;2689;50.954;7.116;2022-08-02T21:17:52;23.00;92.10
5334;DHT22;2689;50.954;7.116;2022-08-02T21:20:18;22.90;92.70
5334;DHT22;2689;50.954;7.116;2022-08-02T21:22:45;22.80;93.00
5334;DHT22;2689;50.954;7.116;2022-08-02T21:25:12;22.80;93.60
5334;DHT22;2689;50.954;7.116;2022-08-02T21:27:40;22.70;94.30
5334;DHT22;2689;50.954;7.116;2022-08-02T21:30:07;22.70;94.30
5334;DHT22;2689;50.954;7.116;2022-08-02T21:32:34;22.60;94.70
5334;DHT22;2689;50.954;7.116;2022-08-02T21:35:01;22.60;95.00
5334;DHT22;2689;50.954;7.116;2022-08-02T21:37:28;22.50;95.10
5334;DHT22;2689;50.954;7.116;2022-08-02T21:39:58;22.50;95.30
5334;DHT22;2689;50.954;7.116;2022-08-02T21:42:25;22.40;95.70
5334;DHT22;2689;50.954;7.116;2022-08-02T21:44:53;22.40;95.70
5334;DHT22;2689;50.954;7.116;2022-08-02T21:47:20;22.30;96.10
5334;DHT22;2689;50.954;7.116;2022-08-02T21:49:50;22.30;96.10
5334;DHT22;2689;50.954;7.116;2022-08-02T21:52:17;22.20;96.20
5334;DHT22;2689;50.954;7.116;2022-08-02T21:54:44;22.20;96.30
5334;DHT22;2689;50.954;7.116;2022-08-02T21:57:11;22.10;96.50
5334;DHT22;2689;50.954;7.116;2022-08-02T21:59:38;22.10;96.70
5334;DHT22;2689;50.954;7.116;2022-08-02T22:02:06;22.00;96.90
5334;DHT22;2689;50.954;7.116;2022-08-02T22:04:33;22.00;97.10
5334;DHT22;2689;50.954;7.116;2022-08-02T22:07:00;21.90;97.30
5334;DHT22;2689;50.954;7.116;2022-08-02T22:09:27;21.90;97.50
5334;DHT22;2689;50.954;7.116;2022-08-02T22:11:54;21.80;97.80
5334;DHT22;2689;50.954;7.116;2022-08-02T22:14:20;21.80;97.90
5334;DHT22;2689;50.954;7.116;2022-08-02T22:16:47;21.70;97.70
5334;DHT22;2689;50.954;7.116;2022-08-02T22:19:15;21.70;97.80
5334;DHT22;2689;50.954;7.116;2022-08-02T22:21:42;21.70;97.90
5334;DHT22;2689;50.954;7.116;2022-08-02T22:24:08;21.70;98.00
5334;DHT22;2689;50.954;7.116;2022-08-02T22:26:35;21.60;98.00
5334;DHT22;2689;50.954;7.116;2022-08-02T22:29:02;21.50;98.10
5334;DHT22;2689;50.954;7.116;2022-08-02T22:31:29;21.50;98.20
5334;DHT22;2689;50.954;7.116;2022-08-02T22:33:56;21.40;98.00
5334;DHT22;2689;50.954;7.116;2022-08-02T22:36:33;21.40;98.20
5334;DHT22;2689;50.954;7.116;2022-08-02T22:39:02;21.30;98.10
5334;DHT22;2689;50.954;7.116;2022-08-02T22:41:29;21.30;98.30
5334;DHT22;2689;50.954;7.116;2022-08-02T22:43:56;21.30;98.50
5334;DHT22;2689;50.954;7.116;2022-08-02T22:46:23;21.30;98.60
5334;DHT22;2689;50.954;7.116;2022-08-02T22:48:50;21.20;98.70
5334;DHT22;2689;50.954;7.116;2022-08-02T22:51:17;21.20;98.70
5334;DHT22;2689;50.954;7.116;2022-08-02T22:53:45;21.20;99.00
5334;DHT22;2689;50.954;7.116;2022-08-02T22:56:12;21.20;99.10
5334;DHT22;2689;50.954;7.116;2022-08-02T22:58:39;21.10;99.20
5334;DHT22;2689;50.954;7.116;2022-08-02T23:01:06;21.10;99.20
5334;DHT22;2689;50.954;7.116;2022-08-02T23:03:33;21.10;99.20
5334;DHT22;2689;50.954;7.116;2022-08-02T23:06:01;21.00;99.30
5334;DHT22;2689;50.954;7.116;2022-08-02T23:08:28;21.00;99.40
5334;DHT22;2689;50.954;7.116;2022-08-02T23:10:58;21.00;99.50
5334;DHT22;2689;50.954;7.116;2022-08-02T23:13:24;21.00;99.70
5334;DHT22;2689;50.954;7.116;2022-08-02T23:15:51;20.90;99.70
5334;DHT22;2689;50.954;7.116;2022-08-02T23:18:35;20.90;99.80
5334;DHT22;2689;50.954;7.116;2022-08-02T23:21:19;20.90;99.90
5334;DHT22;2689;50.954;7.116;2022-08-02T23:23:46;20.90;99.90
5334;DHT22;2689;50.954;7.116;2022-08-02T23:26:14;20.90;99.90
5334;DHT22;2689;50.954;7.116;2022-08-02T23:28:41;20.80;99.90
5334;DHT22;2689;50.954;7.116;2022-08-02T23:31:28;20.80;99.90
5334;DHT22;2689;50.954;7.116;2022-08-02T23:33:54;20.80;99.90
5334;DHT22;2689;50.954;7.116;2022-08-02T23:36:21;20.80;99.90
5334;DHT22;2689;50.954;7.116;2022-08-02T23:38:48;20.70;99.90
5334;DHT22;2689;50.954;7.116;2022-08-02T23:41:16;20.70;99.90
5334;DHT22;2689;50.954;7.116;2022-08-02T23:43:43;20.70;99.90